createdAt,value
2022-10-30T00:03:32.923Z,8.00
2022-10-30T00:06:01.237Z,7.35
2022-10-30T00:08:29.104Z,7.95
2022-10-30T00:10:57.000Z,8.13
2022-10-30T00:13:26.204Z,7.30
2022-10-30T00:18:42.318Z,7.43
2022-10-30T00:21:12.128Z,7.70
2022-10-30T00:23:41.124Z,7.22
2022-10-30T00:26:09.302Z,7.25
2022-10-30T00:28:39.658Z,8.30
2022-10-30T00:31:07.624Z,7.00
2022-10-30T00:33:35.613Z,8.55
2022-10-30T00:38:49.321Z,7.97
2022-10-30T00:41:18.815Z,7.57
2022-10-30T00:43:48.405Z,7.88
2022-10-30T00:46:19.974Z,8.10
2022-10-30T00:48:56.634Z,7.78
2022-10-30T00:51:25.175Z,6.95
2022-10-30T00:53:54.843Z,7.60
2022-10-30T00:56:24.178Z,7.43
2022-10-30T00:58:58.480Z,7.57
2022-10-30T01:04:16.984Z,7.60
2022-10-30T01:06:48.728Z,7.10
2022-10-30T01:09:17.296Z,7.30
2022-10-30T01:11:45.227Z,8.45
2022-10-30T01:14:18.230Z,8.13
2022-10-30T01:16:58.998Z,7.05
2022-10-30T01:22:37.544Z,7.15
2022-10-30T01:25:15.865Z,6.93
2022-10-30T01:27:57.073Z,8.52
2022-10-30T01:30:41.163Z,8.48
2022-10-30T01:36:18.048Z,7.38
2022-10-30T01:38:50.279Z,8.27
2022-10-30T01:41:18.382Z,7.57
2022-10-30T01:43:49.594Z,7.72
2022-10-30T01:46:32.918Z,6.93
2022-10-30T01:49:17.571Z,8.50
2022-10-30T01:51:56.482Z,7.53
2022-10-30T01:57:28.895Z,7.22
2022-10-30T02:00:01.625Z,7.38
2022-10-30T02:02:31.526Z,7.70
2022-10-30T02:07:45.495Z,7.97
2022-10-30T02:10:14.037Z,7.97
2022-10-30T02:15:28.089Z,7.55
2022-10-30T02:17:57.853Z,7.80
2022-10-30T02:20:27.337Z,7.65
2022-10-30T02:22:59.097Z,7.75
2022-10-30T02:25:27.689Z,8.68
2022-10-30T02:27:55.914Z,8.30
2022-10-30T02:33:09.457Z,8.57
2022-10-30T02:38:24.282Z,8.13
2022-10-30T02:40:52.190Z,8.07
2022-10-30T02:43:20.139Z,7.75
2022-10-30T02:45:51.566Z,7.43
2022-10-30T02:51:07.056Z,8.35
2022-10-30T02:53:35.411Z,8.10
2022-10-30T02:58:52.875Z,7.80
2022-10-30T03:01:21.943Z,8.75
2022-10-30T03:03:49.896Z,7.72
2022-10-30T03:06:19.352Z,8.32
2022-10-30T03:08:47.230Z,7.45
2022-10-30T03:11:17.006Z,7.95
2022-10-30T03:13:46.157Z,7.40
2022-10-30T03:16:16.578Z,7.45
2022-10-30T03:18:44.463Z,8.25
2022-10-30T03:24:02.932Z,8.52
2022-10-30T03:26:30.899Z,7.55
2022-10-30T03:31:44.494Z,8.70
2022-10-30T03:34:12.701Z,8.52
2022-10-30T03:42:12.539Z,8.63
2022-10-30T03:44:40.471Z,7.75
2022-10-30T03:47:08.441Z,8.07
2022-10-30T03:49:36.410Z,8.40
2022-10-30T03:52:04.390Z,7.65
2022-10-30T03:54:33.744Z,7.85
2022-10-30T03:57:01.870Z,7.85
2022-10-30T03:59:29.737Z,7.35
2022-10-30T04:01:57.911Z,8.30
2022-10-30T04:04:25.945Z,8.23
2022-10-30T04:09:40.807Z,8.13
2022-10-30T04:14:55.482Z,8.40
2022-10-30T04:17:23.370Z,7.28
2022-10-30T04:19:51.306Z,8.70
2022-10-30T04:22:19.478Z,9.20
2022-10-30T04:24:49.281Z,8.95
2022-10-30T04:27:17.438Z,8.10
2022-10-30T04:29:45.464Z,8.02
2022-10-30T04:32:13.791Z,8.27
2022-10-30T04:37:27.180Z,8.55
2022-10-30T04:39:56.612Z,8.70
2022-10-30T04:42:24.831Z,7.95
2022-10-30T04:44:52.740Z,8.15
2022-10-30T04:47:20.721Z,8.00
2022-10-30T04:49:48.632Z,8.52
2022-10-30T04:55:03.875Z,8.70
2022-10-30T04:57:32.294Z,8.93
2022-10-30T05:00:00.157Z,7.80
2022-10-30T05:02:28.263Z,8.82
2022-10-30T05:04:56.332Z,8.55
2022-10-30T05:07:24.216Z,8.98
2022-10-30T05:09:52.127Z,9.32
2022-10-30T05:15:08.728Z,9.38
2022-10-30T05:17:36.631Z,10.38
2022-10-30T05:20:05.159Z,9.85
2022-10-30T05:22:33.352Z,9.48
2022-10-30T05:25:01.510Z,10.23
2022-10-30T05:27:30.872Z,9.85
2022-10-30T05:29:58.761Z,9.27
2022-10-30T05:35:12.191Z,9.68
2022-10-30T05:37:40.189Z,9.27
2022-10-30T05:40:09.126Z,10.02
2022-10-30T05:42:38.616Z,9.23
2022-10-30T05:45:07.699Z,9.27
2022-10-30T05:50:21.542Z,9.02
2022-10-30T05:52:49.501Z,9.60
2022-10-30T05:55:17.523Z,9.18
2022-10-30T05:57:46.765Z,9.35
2022-10-30T06:00:15.963Z,9.73
2022-10-30T06:02:44.235Z,9.00
2022-10-30T06:05:12.220Z,9.23
2022-10-30T06:07:40.270Z,9.93
2022-10-30T06:12:56.670Z,9.80
2022-10-30T06:18:10.491Z,9.85
2022-10-30T06:20:38.501Z,10.27
2022-10-30T06:23:08.687Z,9.10
2022-10-30T06:25:41.381Z,9.63
2022-10-30T06:30:56.542Z,11.13
2022-10-30T06:36:10.151Z,11.75
2022-10-30T06:38:38.205Z,12.80
2022-10-30T06:41:06.455Z,12.95
2022-10-30T06:46:21.478Z,14.05
2022-10-30T06:48:49.550Z,13.00
2022-10-30T06:54:03.621Z,12.85
2022-10-30T06:59:18.243Z,12.27
2022-10-30T07:01:46.212Z,14.77
2022-10-30T07:04:14.114Z,13.93
2022-10-30T07:06:41.989Z,13.70
2022-10-30T07:09:10.297Z,13.20
2022-10-30T07:11:40.338Z,12.55
2022-10-30T07:14:08.291Z,12.43
2022-10-30T07:16:38.346Z,13.40
2022-10-30T07:19:07.201Z,12.65
2022-10-30T07:21:35.207Z,12.57
2022-10-30T07:24:03.549Z,13.05
2022-10-30T07:26:31.475Z,13.48
2022-10-30T07:28:59.549Z,13.35
2022-10-30T07:31:41.514Z,12.48
2022-10-30T07:34:13.575Z,12.30
2022-10-30T07:36:41.809Z,10.93
2022-10-30T07:39:09.710Z,11.85
2022-10-30T07:44:22.780Z,11.45
2022-10-30T07:46:50.940Z,11.43
2022-10-30T07:49:20.239Z,10.25
2022-10-30T07:51:48.212Z,11.32
2022-10-30T07:57:01.915Z,10.63
2022-10-30T07:59:30.384Z,11.68
2022-10-30T08:01:58.392Z,11.15
2022-10-30T08:04:27.855Z,10.25
2022-10-30T08:06:55.927Z,10.73
2022-10-30T08:09:24.168Z,11.02
2022-10-30T08:11:52.078Z,12.77
2022-10-30T08:17:07.676Z,14.40
2022-10-30T08:19:37.039Z,13.23
2022-10-30T08:22:05.042Z,14.07
2022-10-30T08:24:33.301Z,14.32
2022-10-30T08:27:01.201Z,16.38
2022-10-30T08:29:29.315Z,15.35
2022-10-30T08:31:57.781Z,14.75
2022-10-30T08:34:26.652Z,14.52
2022-10-30T08:36:55.897Z,14.15
2022-10-30T08:39:24.194Z,13.30
2022-10-30T08:41:52.459Z,13.60
2022-10-30T08:44:20.418Z,12.82
2022-10-30T08:46:48.713Z,13.38
2022-10-30T08:49:16.657Z,11.95
2022-10-30T08:51:46.095Z,12.90
2022-10-30T08:54:15.698Z,11.00
2022-10-30T08:56:43.669Z,12.55
2022-10-30T09:04:42.557Z,12.10
2022-10-30T09:07:13.053Z,12.10
2022-10-30T09:09:42.798Z,11.10
2022-10-30T09:12:10.810Z,11.68
2022-10-30T09:14:38.998Z,12.40
2022-10-30T09:17:07.046Z,11.80
2022-10-30T09:19:35.271Z,12.15
2022-10-30T09:22:03.767Z,12.25
2022-10-30T09:27:18.699Z,11.73
2022-10-30T09:29:46.740Z,12.38
2022-10-30T09:32:14.677Z,11.88
2022-10-30T09:34:42.834Z,12.48
2022-10-30T09:37:12.340Z,12.40
2022-10-30T09:42:50.876Z,11.82
2022-10-30T09:45:43.902Z,11.95
2022-10-30T09:48:35.760Z,11.85
2022-10-30T09:51:14.782Z,11.73
2022-10-30T09:53:53.773Z,11.80
2022-10-30T09:56:27.827Z,13.65
2022-10-30T09:59:08.983Z,11.77
2022-10-30T10:01:43.269Z,12.73
2022-10-30T10:07:17.347Z,11.73
2022-10-30T10:09:46.130Z,11.73
2022-10-30T10:12:20.015Z,11.48
2022-10-30T10:14:50.017Z,11.85
2022-10-30T10:23:20.285Z,12.05
2022-10-30T10:25:54.173Z,12.38
2022-10-30T10:28:45.587Z,12.48
2022-10-30T10:31:25.588Z,12.07
2022-10-30T10:34:19.698Z,12.65
2022-10-30T10:45:23.076Z,11.88
2022-10-30T10:48:24.426Z,11.25
2022-10-30T10:50:58.104Z,11.60
2022-10-30T10:56:17.991Z,12.38
2022-10-30T10:58:52.599Z,11.00
2022-10-30T11:01:29.218Z,11.43
2022-10-30T11:06:53.382Z,10.65
2022-10-30T11:12:08.549Z,11.18
2022-10-30T11:14:38.615Z,11.98
2022-10-30T11:17:16.972Z,11.35
2022-10-30T11:19:51.699Z,11.18
2022-10-30T11:22:25.348Z,11.43
2022-10-30T11:27:38.795Z,10.85
2022-10-30T11:32:56.893Z,11.10
2022-10-30T11:35:27.593Z,11.40
2022-10-30T11:38:14.154Z,11.35
2022-10-30T11:40:49.286Z,11.07
2022-10-30T11:43:21.762Z,10.75
2022-10-30T11:48:40.141Z,28.50
2022-10-30T11:51:09.681Z,19.45
2022-10-30T11:53:41.584Z,15.35
2022-10-30T11:56:16.439Z,13.65
2022-10-30T11:58:47.124Z,12.98
2022-10-30T12:01:21.012Z,11.18
2022-10-30T12:03:49.316Z,11.25
2022-10-30T12:06:22.208Z,10.57
2022-10-30T12:14:34.754Z,10.60
2022-10-30T12:17:02.774Z,10.68
2022-10-30T12:22:30.243Z,10.70
2022-10-30T12:24:59.367Z,10.75
2022-10-30T12:27:27.807Z,11.18
2022-10-30T12:30:08.857Z,10.60
2022-10-30T12:35:45.420Z,11.38
2022-10-30T12:38:21.871Z,10.50
2022-10-30T12:41:01.927Z,11.45
2022-10-30T12:43:30.153Z,10.65
2022-10-30T12:46:07.772Z,10.95
2022-10-30T12:51:36.702Z,9.63
2022-10-30T12:57:07.137Z,9.93
2022-10-30T12:59:45.695Z,9.45
2022-10-30T13:02:22.160Z,8.90
2022-10-30T13:04:55.583Z,9.50
2022-10-30T13:07:31.354Z,10.13
2022-10-30T13:10:13.159Z,10.15
2022-10-30T13:12:46.379Z,10.05
2022-10-30T13:15:19.691Z,9.02
2022-10-30T13:20:34.477Z,9.60
2022-10-30T13:23:07.188Z,9.90
2022-10-30T13:25:44.223Z,9.40
2022-10-30T13:28:22.011Z,9.98
2022-10-30T13:31:00.687Z,9.85
2022-10-30T13:33:34.376Z,9.00
2022-10-30T13:36:10.198Z,9.93
2022-10-30T13:38:47.068Z,10.18
2022-10-30T13:41:28.624Z,10.30
2022-10-30T13:44:05.994Z,9.25
2022-10-30T13:46:57.947Z,10.38
2022-10-30T13:55:00.322Z,9.75
2022-10-30T13:57:34.977Z,9.70
2022-10-30T14:03:13.851Z,9.75
2022-10-30T14:05:49.205Z,10.57
2022-10-30T14:11:14.615Z,11.57
2022-10-30T14:13:57.185Z,11.55
2022-10-30T14:16:46.690Z,11.88
2022-10-30T14:19:16.395Z,11.68
2022-10-30T14:21:54.744Z,11.73
2022-10-30T14:27:12.320Z,12.10
2022-10-30T14:30:00.852Z,11.63
2022-10-30T14:32:42.495Z,11.25
2022-10-30T14:35:35.465Z,12.63
2022-10-30T14:38:37.033Z,13.20
2022-10-30T14:44:44.221Z,13.07
2022-10-30T14:47:47.431Z,12.82
2022-10-30T14:50:23.155Z,12.98
2022-10-30T14:53:06.041Z,13.18
2022-10-30T14:55:37.299Z,13.75
2022-10-30T14:58:22.412Z,14.50
2022-10-30T15:00:51.262Z,15.45
2022-10-30T15:03:37.552Z,15.45
2022-10-30T15:06:14.956Z,13.70
2022-10-30T15:09:07.286Z,13.98
2022-10-30T15:14:54.904Z,13.65
2022-10-30T15:20:20.871Z,13.23
2022-10-30T15:22:52.801Z,14.23
2022-10-30T15:25:23.312Z,14.52
2022-10-30T15:27:55.108Z,13.63
2022-10-30T15:30:25.014Z,13.90
2022-10-30T15:32:53.544Z,14.57
2022-10-30T15:35:26.044Z,15.15
2022-10-30T15:38:01.970Z,14.98
2022-10-30T15:40:30.972Z,15.02
2022-10-30T15:43:01.730Z,16.13
2022-10-30T15:45:35.316Z,15.50
2022-10-30T15:48:08.399Z,15.27
2022-10-30T15:50:42.342Z,16.45
2022-10-30T15:53:19.068Z,15.23
2022-10-30T15:55:47.606Z,15.35
2022-10-30T16:01:04.778Z,14.73
2022-10-30T16:03:32.888Z,13.65
2022-10-30T16:06:19.044Z,12.25
2022-10-30T16:11:34.400Z,10.93
2022-10-30T16:14:08.786Z,10.98
2022-10-30T16:16:36.873Z,10.88
2022-10-30T16:19:06.342Z,10.13
2022-10-30T16:21:37.157Z,10.63
2022-10-30T16:24:05.977Z,9.15
2022-10-30T16:26:35.994Z,9.85
2022-10-30T16:29:17.167Z,9.43
2022-10-30T16:31:49.869Z,9.68
2022-10-30T16:34:23.874Z,10.30
2022-10-30T16:42:27.495Z,9.85
2022-10-30T16:45:35.888Z,9.90
2022-10-30T16:51:01.909Z,10.63
2022-10-30T16:56:24.030Z,10.20
2022-10-30T16:58:53.183Z,9.60
2022-10-30T17:01:27.009Z,10.52
2022-10-30T17:06:43.310Z,9.32
2022-10-30T17:09:25.941Z,9.10
2022-10-30T17:12:11.590Z,8.55
2022-10-30T17:14:47.569Z,8.23
2022-10-30T17:17:33.599Z,7.57
2022-10-30T17:20:14.454Z,7.43
2022-10-30T17:22:42.622Z,7.43
2022-10-30T17:25:32.172Z,8.48
2022-10-30T17:28:00.220Z,6.65
2022-10-30T17:30:38.099Z,6.78
2022-10-30T17:33:25.312Z,7.35
2022-10-30T17:38:26.644Z,6.55
2022-10-30T17:40:55.945Z,5.95
2022-10-30T17:46:19.221Z,5.88
2022-10-30T17:48:48.931Z,6.32
2022-10-30T17:51:17.951Z,6.80
2022-10-30T17:53:47.936Z,6.68
2022-10-30T17:56:20.429Z,6.40
2022-10-30T17:58:48.444Z,5.63
2022-10-30T18:01:19.323Z,6.55
2022-10-30T18:03:47.305Z,6.63
2022-10-30T18:06:18.194Z,5.60
2022-10-30T18:11:33.465Z,6.35
2022-10-30T18:14:02.129Z,6.93
2022-10-30T18:16:30.483Z,7.78
2022-10-30T18:18:58.795Z,6.18
2022-10-30T18:21:28.734Z,6.82
2022-10-30T18:26:43.719Z,6.45
2022-10-30T18:31:58.289Z,6.70
2022-10-30T18:34:26.150Z,6.03
2022-10-30T18:36:54.063Z,6.85
2022-10-30T18:42:10.603Z,6.55
2022-10-30T18:44:38.541Z,6.18
2022-10-30T18:47:10.371Z,6.45
2022-10-30T18:49:38.535Z,6.88
2022-10-30T18:52:06.455Z,6.40
2022-10-30T18:54:34.323Z,6.15
2022-10-30T18:57:02.338Z,6.38
2022-10-30T18:59:31.946Z,7.13
2022-10-30T19:01:59.981Z,7.40
2022-10-30T19:07:13.448Z,6.50
2022-10-30T19:09:41.850Z,7.43
2022-10-30T19:12:11.617Z,6.85
2022-10-30T19:14:40.937Z,6.40
2022-10-30T19:17:08.949Z,7.03
2022-10-30T19:19:37.041Z,6.68
2022-10-30T19:22:05.064Z,7.07
2022-10-30T19:27:18.566Z,7.07
2022-10-30T19:29:47.780Z,7.13
2022-10-30T19:32:15.751Z,7.53
2022-10-30T19:34:45.920Z,7.60
2022-10-30T19:37:13.826Z,6.93
2022-10-30T19:42:27.547Z,7.25
2022-10-30T19:44:56.848Z,7.28
2022-10-30T19:47:24.713Z,8.00
2022-10-30T19:49:52.925Z,7.50
2022-10-30T19:52:22.202Z,7.38
2022-10-30T19:54:53.374Z,7.25
2022-10-30T19:57:21.866Z,6.60
2022-10-30T19:59:49.977Z,6.35
2022-10-30T20:02:19.456Z,5.95
2022-10-30T20:04:47.369Z,5.70
2022-10-30T20:10:01.595Z,5.20
2022-10-30T20:12:29.636Z,5.20
2022-10-30T20:14:57.675Z,4.20
2022-10-30T20:17:27.127Z,4.75
2022-10-30T20:19:55.004Z,4.45
2022-10-30T20:22:28.359Z,4.38
2022-10-30T20:24:56.524Z,4.50
2022-10-30T20:27:24.610Z,3.88
2022-10-30T20:29:52.542Z,4.63
2022-10-30T20:35:10.442Z,4.95
2022-10-30T20:37:39.191Z,4.63
2022-10-30T20:40:13.654Z,4.70
2022-10-30T20:45:29.133Z,4.88
2022-10-30T20:47:57.349Z,4.40
2022-10-30T20:50:26.828Z,4.38
2022-10-30T20:52:54.869Z,4.28
2022-10-30T20:55:23.000Z,5.80
2022-10-30T21:06:09.951Z,4.53
2022-10-30T21:08:37.990Z,4.65
2022-10-30T21:13:56.417Z,4.47
2022-10-30T21:19:10.017Z,4.03
2022-10-30T21:21:39.270Z,4.32
2022-10-30T21:29:38.961Z,4.20
2022-10-30T21:34:52.615Z,3.85
2022-10-30T21:37:23.655Z,3.78
2022-10-30T21:39:51.636Z,4.15
2022-10-30T21:42:19.554Z,4.30
2022-10-30T21:47:33.528Z,4.15
2022-10-30T21:52:48.457Z,4.63
2022-10-30T21:55:16.406Z,4.35
2022-10-30T21:57:44.269Z,4.80
2022-10-30T22:00:13.671Z,5.18
2022-10-30T22:02:42.152Z,4.65
2022-10-30T22:07:58.188Z,5.28
2022-10-30T22:10:26.351Z,4.97
2022-10-30T22:12:54.258Z,5.55
2022-10-30T22:15:22.179Z,5.15
2022-10-30T22:17:50.065Z,5.32
2022-10-30T22:20:18.480Z,5.38
2022-10-30T22:22:46.524Z,5.65
2022-10-30T22:25:15.969Z,6.13
2022-10-30T22:27:43.901Z,5.90
2022-10-30T22:30:12.725Z,5.97
2022-10-30T22:35:26.450Z,6.40
2022-10-30T22:37:54.319Z,6.13
2022-10-30T22:40:23.613Z,5.90
2022-10-30T22:42:51.443Z,5.72
2022-10-30T22:48:04.979Z,6.50
2022-10-30T22:53:18.305Z,6.78
2022-10-30T22:55:47.584Z,6.38
2022-10-30T22:58:15.556Z,6.88
2022-10-30T23:00:43.507Z,6.85
2022-10-30T23:03:11.372Z,6.72
2022-10-30T23:05:39.392Z,7.57
2022-10-30T23:08:07.300Z,6.75
2022-10-30T23:10:35.208Z,7.50
2022-10-30T23:13:04.411Z,7.95
2022-10-30T23:15:32.394Z,7.90
2022-10-30T23:18:00.633Z,7.50
2022-10-30T23:20:29.034Z,8.40
2022-10-30T23:22:56.891Z,7.45
2022-10-30T23:25:24.815Z,7.78
2022-10-30T23:27:53.994Z,7.72
2022-10-30T23:30:23.363Z,7.57
2022-10-30T23:32:51.440Z,7.72
2022-10-30T23:35:19.379Z,7.70
2022-10-30T23:37:47.361Z,8.85
2022-10-30T23:40:15.400Z,8.35
2022-10-30T23:42:43.294Z,7.60
2022-10-30T23:45:11.193Z,8.02
2022-10-30T23:47:42.708Z,8.55
2022-10-30T23:50:12.299Z,8.32
2022-10-30T23:52:40.230Z,7.82
2022-10-30T23:55:09.347Z,8.27
2022-10-30T23:57:37.395Z,8.02
